Home > Products > Valid Products > TAF

000
FTUS43 KDVN 031120
TAFCID
TAF
KCID 031120Z 0312/0412 27005KT P6SM SKC
     FM031500 27011KT P6SM FEW250
     FM031900 28013G20KT P6SM SCT250
     FM040000 27011KT P6SM BKN100 PROB30 0401/0405 5SM -SHRA BKN050
     FM040600 32012KT P6SM SKC=



000
FTUS43 KDVN 031120
TAFMLI
TAF
KMLI 031120Z 0312/0412 27004KT P6SM SKC
     FM031500 27009KT P6SM FEW250
     FM031900 28011G17KT P6SM SCT250
     FM040100 27010KT P6SM BKN100 PROB30 0402/0406 5SM -SHRA BKN050
     FM040700 32011KT P6SM SKC=



000
FTUS43 KDVN 031120
TAFDBQ
TAF
KDBQ 031120Z 0312/0412 27005KT P6SM SKC
     FM031500 27011KT P6SM FEW250
     FM031900 28013G20KT P6SM SCT250
     FM032300 27011KT P6SM BKN100 PROB30 0400/0404 5SM -SHRA BKN050
     FM040500 32012KT P6SM SKC=



000
FTUS43 KDVN 031120
TAFBRL
TAF
KBRL 031120Z 0312/0412 28004KT P6SM SKC
     FM031500 27008KT P6SM FEW250
     FM031900 28010G16KT P6SM SCT250
     FM040200 27010KT P6SM BKN100 PROB30 0403/0407 5SM -SHRA BKN050
     FM040800 32011KT P6SM SKC=



000
FTUS43 KDVN 030520
TAFDBQ
TAF
KDBQ 030520Z 0306/0406 24003KT P6SM SCT090
     FM031500 27010KT P6SM SCT200
     FM031900 27014G22KT P6SM BKN200
     FM040000 26013KT P6SM BKN100 PROB30 0400/0404 4SM SHRA BKN040=



000
FTUS43 KDVN 030520
TAFDBQ
TAF
KDBQ 030520Z 0306/0406 24003KT P6SM SCT090
     FM031500 27010KT P6SM SCT200
     FM031900 27014G22KT P6SM BKN200
     FM040000 26013KT P6SM BKN100 PROB30 0400/0404 4SM SHRA BKN040=



000
FTUS43 KDVN 030520
TAFCID
TAF
KCID 030520Z 0306/0406 27004KT P6SM BKN090
     FM031500 27012KT P6SM SCT250
     FM032000 28014G22KT P6SM SCT200
     FM040000 27011KT P6SM SCT200 PROB30 0401/0405 -SHRA BKN050=



000
FTUS43 KDVN 030520
TAFBRL
TAF
KBRL 030520Z 0306/0406 30003KT P6SM BKN090
     FM031100 VRB03KT 5SM BR SKC
     FM031400 29006KT P6SM SKC
     FM032100 27010KT P6SM SCT200 PROB30 0403/0406 6SM -SHRA BKN040=



000
FTUS43 KDVN 030520
TAFCID
TAF
KCID 030520Z 0306/0406 27004KT P6SM BKN090
     FM031500 27012KT P6SM SCT250
     FM032000 28014G22KT P6SM SCT200
     FM040000 27011KT P6SM SCT200 PROB30 0401/0405 -SHRA BKN050=



000
FTUS43 KDVN 030520
TAFBRL
TAF
KBRL 030520Z 0306/0406 30003KT P6SM BKN090
     FM031100 VRB03KT 5SM BR SKC
     FM031400 29006KT P6SM SKC
     FM032100 27010KT P6SM SCT200 PROB30 0403/0406 6SM -SHRA BKN040=



000
FTUS43 KDVN 030520
TAFMLI
TAF
KMLI 030520Z 0306/0406 VRB03KT P6SM BKN080
     FM031500 28008KT P6SM SKC
     FM032000 27014G22KT P6SM SCT200
     FM040000 25011KT P6SM BKN100 PROB30 0401/0404 5SM -SHRA BKN040=



000
FTUS43 KDVN 030520
TAFMLI
TAF
KMLI 030520Z 0306/0406 VRB03KT P6SM BKN080
     FM031500 28008KT P6SM SKC
     FM032000 27014G22KT P6SM SCT200
     FM040000 25011KT P6SM BKN100 PROB30 0401/0404 5SM -SHRA BKN040=



000
FTUS43 KDVN 022320
TAFMLI
TAF
KMLI 022320Z 0300/0324 05005KT P6SM BKN080
     FM030300 VRB03KT P6SM SCT080
     FM031500 28007KT P6SM SKC
     FM032000 27013G21KT P6SM SCT200=



000
FTUS43 KDVN 022320
TAFDBQ
TAF
KDBQ 022320Z 0300/0324 VRB03KT P6SM BKN080
     FM031200 26005KT P6SM SKC
     FM031500 27010KT P6SM SKC
     FM032000 27014G23KT P6SM SCT200=



000
FTUS43 KDVN 022320
TAFCID
TAF
KCID 022320Z 0300/0324 VRB03KT P6SM BKN090
     FM031300 29006KT P6SM SKC
     FM031500 27010KT P6SM SCT250
     FM032000 28014G22KT P6SM SCT200=



000
FTUS43 KDVN 022320
TAFBRL
TAF
KBRL 022320Z 0300/0324 03003KT P6SM OVC080
     FM030300 VRB03KT P6SM SCT070
     FM031500 30007KT P6SM SKC
     FM032100 28012KT P6SM SCT200=



000
FTUS43 KDVN 022127 AAA
TAFCID
TAF AMD
KCID 022127Z 0221/0318 01004KT P6SM BKN080
     FM030000 05005KT P6SM SCT080
     FM030300 VRB03KT P6SM SKC
     FM031500 27010KT P6SM SCT250=



000
FTUS43 KDVN 021729
TAFBRL
TAF
KBRL 021729Z 0218/0318 03007KT P6SM VCSH SCT030 BKN040
     FM030000 02004KT P6SM BKN050
     FM030500 VRB03KT P6SM SCT035
     FM031500 30007KT P6SM SKC=



000
FTUS43 KDVN 021729
TAFMLI
TAF
KMLI 021729Z 0218/0318 04007KT P6SM SCT030 BKN040
     FM030000 06004KT P6SM SCT050
     FM030300 VRB03KT P6SM SKC
     FM031500 28007KT P6SM SKC=



000
FTUS43 KDVN 021729
TAFDBQ
TAF
KDBQ 021729Z 0218/0318 03007KT P6SM SCT040
     FM030100 VRB03KT P6SM SKC
     FM031500 27010KT P6SM SKC=



000
FTUS43 KDVN 021729
TAFCID
TAF
KCID 021729Z 0218/0318 03007KT P6SM VCSH SCT025 BKN040
     FM030000 05005KT P6SM SCT050
     FM030300 VRB03KT P6SM SKC
     FM031500 27010KT P6SM SCT250=



000
FTUS43 KDVN 021423 AAB
TAFBRL
TAF AMD
KBRL 021423Z 0214/0312 03008KT 5SM BR SCT007 OVC015
      TEMPO 0214/0216 4SM BR BKN007
     FM021700 02008KT P6SM VCSH BKN030
     FM021800 03007KT P6SM VCSH SCT030 OVC035
     FM030000 02004KT P6SM OVC035
     FM030600 35003KT P6SM SCT035=



000
FTUS43 KDVN 021418 AAB
TAFCID
TAF AMD
KCID 021418Z 0214/0312 02007KT P6SM VCSH SCT015 BKN025
     FM021900 03007KT P6SM VCSH SCT025 BKN035
     FM030000 05005KT P6SM SCT035
     FM030300 VRB03KT P6SM FEW035
     FM030900 29003KT P6SM SKC=



000
FTUS43 KDVN 021300 AAA
TAFCID
TAF AMD
KCID 021300Z 0213/0312 01006KT P6SM OVC035
     FM021900 03007KT P6SM VCSH SCT025 BKN035
     FM030000 05005KT P6SM SCT035
     FM030300 VRB03KT P6SM FEW035
     FM030900 29003KT P6SM SKC=



000
FTUS43 KDVN 021235 AAA
TAFMLI
TAF AMD
KMLI 021235Z 0213/0312 04007KT P6SM FEW010 OVC035
     FM021600 05008KT P6SM SCT028 OVC035
     FM022000 06007KT P6SM VCSH SCT028 BKN035
     FM030000 06004KT P6SM BKN035
     FM030600 VRB03KT P6SM SCT035=



000
FTUS43 KDVN 021234 AAA
TAFBRL
TAF AMD
KBRL 021234Z 0213/0312 02007KT 3SM BR BKN004 OVC015
      TEMPO 0213/0214 4SM BR SCT004 OVC035
     FM021400 02007KT P6SM BKN030 OVC035
     FM021800 03007KT P6SM VCSH SCT030 OVC035
     FM030000 02004KT P6SM OVC035
     FM030600 35003KT P6SM SCT035=



000
FTUS43 KDVN 021234 AAA
TAFBRL
TAF AMD
KBRL 021234Z 0213/0312 02007KT 3SM BR BKN004 OVC015
      TEMPO 0213/0214 4SM BR SCT004 OVC035
     FM021400 02007KT P6SM BKN030 OVC035
     FM021800 03007KT P6SM VCSH SCT030 OVC035
     FM030000 02004KT P6SM OVC035
     FM030600 35003KT P6SM SCT035=



000
FTUS43 KDVN 021132
TAFBRL
TAF
KBRL 021132Z 0212/0312 02007KT 1 1/2SM BR SCT004 OVC015
      TEMPO 0212/0214 4SM BR SCT015 OVC035
     FM021400 02007KT P6SM BKN030 OVC035
     FM021800 03007KT P6SM VCSH SCT030 OVC035
     FM030000 02004KT P6SM OVC035
     FM030600 35003KT P6SM SCT035=



000
FTUS43 KDVN 021132
TAFMLI
TAF
KMLI 021132Z 0212/0312 04007KT P6SM OVC028
     FM021600 05008KT P6SM SCT028 OVC035
     FM022000 06007KT P6SM VCSH SCT028 BKN035
     FM030000 06004KT P6SM BKN035
     FM030600 VRB03KT P6SM SCT035=



000
FTUS43 KDVN 021132
TAFDBQ
TAF
KDBQ 021132Z 0212/0312 03005KT P6SM SCT009 SCT022 OVC035
     FM021900 06007KT P6SM VCSH SCT022 BKN035
     FM030000 06004KT P6SM BKN035
     FM030300 VRB03KT P6SM SCT035
     FM031000 27004KT P6SM SKC=



000
FTUS43 KDVN 021132
TAFCID
TAF
KCID 021132Z 0212/0312 01006KT P6SM OVC025
     FM021900 03007KT P6SM VCSH SCT025 BKN035
     FM030000 05005KT P6SM SCT035
     FM030300 VRB03KT P6SM FEW035
     FM030900 29003KT P6SM SKC=



000
FTUS43 KDVN 021132
TAFBRL
TAF
KBRL 021132Z 0212/0312 02007KT 1 1/2SM BR SCT004 OVC015
      TEMPO 0212/0214 4SM BR SCT015 OVC035
     FM021400 02007KT P6SM BKN030 OVC035
     FM021800 03007KT P6SM VCSH SCT030 OVC035
     FM030000 02004KT P6SM OVC035
     FM030600 35003KT P6SM SCT035=



000
FTUS43 KDVN 021132
TAFDBQ
TAF
KDBQ 021132Z 0212/0312 03005KT P6SM SCT009 SCT022 OVC035
     FM021900 06007KT P6SM VCSH SCT022 BKN035
     FM030000 06004KT P6SM BKN035
     FM030300 VRB03KT P6SM SCT035
     FM031000 27004KT P6SM SKC=



000
FTUS43 KDVN 021132
TAFCID
TAF
KCID 021132Z 0212/0312 01006KT P6SM OVC025
     FM021900 03007KT P6SM VCSH SCT025 BKN035
     FM030000 05005KT P6SM SCT035
     FM030300 VRB03KT P6SM FEW035
     FM030900 29003KT P6SM SKC=



000
FTUS43 KDVN 021132
TAFMLI
TAF
KMLI 021132Z 0212/0312 04007KT P6SM OVC028
     FM021600 05008KT P6SM SCT028 OVC035
     FM022000 06007KT P6SM VCSH SCT028 BKN035
     FM030000 06004KT P6SM BKN035
     FM030600 VRB03KT P6SM SCT035=



000
FTUS43 KDVN 021052 AAB
TAFCID
TAF AMD
KCID 021052Z 0211/0306 36004KT P6SM BKN030
     FM021400 03006KT P6SM BKN050
     FM022100 04006KT P6SM VCSH BKN050
     FM030000 34003KT P6SM SCT050=



000
FTUS43 KDVN 021052 AAB
TAFCID
TAF AMD
KCID 021052Z 0211/0306 36004KT P6SM BKN030
     FM021400 03006KT P6SM BKN050
     FM022100 04006KT P6SM VCSH BKN050
     FM030000 34003KT P6SM SCT050=



000
FTUS43 KDVN 020957 AAE
TAFMLI
TAF AMD
KMLI 020957Z 0210/0306 03005KT 6SM BR SCT008 OVC015
      TEMPO 0210/0211 4SM BR BKN008 OVC015
     FM021500 05008KT P6SM SCT030 OVC050
     FM022100 04007KT P6SM VCSH BKN040
     FM030000 04003KT P6SM SCT050=



000
FTUS43 KDVN 020951 AAA
TAFCID
TAF AMD
KCID 020951Z 0210/0306 36004KT P6SM FEW050
     FM021400 03006KT P6SM BKN050
     FM022100 04006KT P6SM VCSH BKN050
     FM030000 34003KT P6SM SCT050=



000
FTUS43 KDVN 020919 AAD
TAFMLI
TAF AMD
KMLI 020919Z 0209/0306 03005KT 6SM BR SCT008 OVC015
      TEMPO 0209/0211 6SM BR BKN008 OVC015
     FM021500 05008KT P6SM SCT030 OVC050
     FM022100 04007KT P6SM VCSH BKN040
     FM030000 04003KT P6SM SCT050=



000
FTUS43 KDVN 020919 AAB
TAFDBQ
TAF AMD
KDBQ 020919Z 0209/0306 03006KT 6SM BR BKN015
     FM021400 04007KT P6SM SCT030 BKN050
     FM022000 03008KT P6SM VCSH BKN050
     FM030000 05003KT P6SM SCT050=



000
FTUS43 KDVN 020919 AAD
TAFMLI
TAF AMD
KMLI 020919Z 0209/0306 03005KT 6SM BR SCT008 OVC015
      TEMPO 0209/0211 6SM BR BKN008 OVC015
     FM021500 05008KT P6SM SCT030 OVC050
     FM022100 04007KT P6SM VCSH BKN040
     FM030000 04003KT P6SM SCT050=



000
FTUS43 KDVN 020803 AAC
TAFMLI
TAF AMD
KMLI 020803Z 0208/0306 03005KT 6SM BR SCT008 OVC015
      TEMPO 0208/0209 6SM BR BKN008 OVC015
     FM021500 05008KT P6SM SCT030 OVC050
     FM022100 04007KT P6SM VCSH BKN040
     FM030000 04003KT P6SM SCT050=



000
FTUS43 KDVN 020709 AAA
TAFBRL
TAF AMD
KBRL 020709Z 0207/0306 36008KT 6SM BR OVC010
      TEMPO 0208/0212 2SM BR
     FM021200 02006KT 4SM BR OVC006
     FM021500 02007KT P6SM OVC020
     FM021700 03008KT P6SM BKN040 PROB30 0220/0224 6SM -SHRA
     FM030100 35003KT P6SM SCT050=



000
FTUS43 KDVN 020702 AAB
TAFMLI
TAF AMD
KMLI 020702Z 0207/0306 03005KT 6SM BR OVC025
     FM021500 05008KT P6SM SCT030 OVC050
     FM022100 04007KT P6SM VCSH BKN040
     FM030000 04003KT P6SM SCT050=



000
FTUS43 KDVN 020612 AAA
TAFDBQ
TAF AMD
KDBQ 020612Z 0206/0306 36008KT P6SM BKN025
     FM020900 03006KT 6SM BR BKN025
     FM021400 04007KT P6SM SCT030 BKN050
     FM022000 03008KT P6SM VCSH BKN050
     FM030000 05003KT P6SM SCT050=



000
FTUS43 KDVN 020611 AAA
TAFMLI
TAF AMD
KMLI 020611Z 0206/0306 04006KT 6SM BR BKN010 OVC035
     FM020800 03005KT 6SM BR OVC025
     FM021500 05008KT P6SM SCT030 OVC050
     FM022100 04007KT P6SM VCSH BKN040
     FM030000 04003KT P6SM SCT050=



000
FTUS43 KDVN 020520
TAFDBQ
TAF
KDBQ 020520Z 0206/0306 04008KT P6SM BKN060
     FM020900 03006KT 6SM BR BKN025
     FM021400 04007KT P6SM SCT030 BKN050
     FM022000 03008KT P6SM VCSH BKN050
     FM030000 05003KT P6SM SCT050=



000
FTUS43 KDVN 020520
TAFCID
TAF
KCID 020520Z 0206/0306 36004KT P6SM BKN050
     FM021100 01008KT 4SM BR BKN025
     FM021400 03006KT P6SM BKN050
     FM022100 04006KT P6SM VCSH BKN050
     FM030000 34003KT P6SM SCT050=



000
FTUS43 KDVN 020520
TAFBRL
TAF
KBRL 020520Z 0206/0306 36008KT P6SM OVC007
      TEMPO 0208/0212 2SM BR
     FM021200 02006KT 4SM BR OVC006
     FM021500 02007KT P6SM OVC020
     FM021700 03008KT P6SM BKN040 PROB30 0220/0224 6SM -SHRA
     FM030100 35003KT P6SM SCT050=



000
FTUS43 KDVN 020520
TAFMLI
TAF
KMLI 020520Z 0206/0306 04006KT 6SM BR SCT009 OVC035
     FM020800 03005KT 6SM BR OVC025
     FM021500 05008KT P6SM SCT030 OVC050
     FM022100 04007KT P6SM VCSH BKN040
     FM030000 04003KT P6SM SCT050=



000
FTUS43 KDVN 020520
TAFMLI
TAF
KMLI 020520Z 0206/0306 04006KT 6SM BR SCT009 OVC035
     FM020800 03005KT 6SM BR OVC025
     FM021500 05008KT P6SM SCT030 OVC050
     FM022100 04007KT P6SM VCSH BKN040
     FM030000 04003KT P6SM SCT050=



000
FTUS43 KDVN 020520
TAFDBQ
TAF
KDBQ 020520Z 0206/0306 04008KT P6SM BKN060
     FM020900 03006KT 6SM BR BKN025
     FM021400 04007KT P6SM SCT030 BKN050
     FM022000 03008KT P6SM VCSH BKN050
     FM030000 05003KT P6SM SCT050=



000
FTUS43 KDVN 020520
TAFBRL
TAF
KBRL 020520Z 0206/0306 36008KT P6SM OVC007
      TEMPO 0208/0212 2SM BR
     FM021200 02006KT 4SM BR OVC006
     FM021500 02007KT P6SM OVC020
     FM021700 03008KT P6SM BKN040 PROB30 0220/0224 6SM -SHRA
     FM030100 35003KT P6SM SCT050=



000
FTUS43 KDVN 020520
TAFCID
TAF
KCID 020520Z 0206/0306 36004KT P6SM BKN050
     FM021100 01008KT 4SM BR BKN025
     FM021400 03006KT P6SM BKN050
     FM022100 04006KT P6SM VCSH BKN050
     FM030000 34003KT P6SM SCT050=



000
FTUS43 KDVN 020433 AAB
TAFBRL
TAF AMD
KBRL 020433Z 0205/0224 36005KT P6SM OVC007
      TEMPO 0208/0212 2SM BR
     FM021200 02006KT 4SM BR OVC005
     FM021500 02007KT P6SM OVC020
     FM021700 03008KT P6SM BKN025=



000
FTUS43 KDVN 020431 AAC
TAFMLI
TAF AMD
KMLI 020431Z 0205/0224 04006KT 6SM BR SCT009 OVC035
     FM020700 03005KT 5SM BR OVC025
     FM021100 03008KT P6SM BKN025
     FM021500 05008KT P6SM SCT030 OVC050=



000
FTUS43 KDVN 020308 AAB
TAFDBQ
TAF AMD
KDBQ 020308Z 0203/0224 04008KT P6SM SCT040 BKN060
     FM020900 03006KT P6SM SCT050
     FM021700 02008KT P6SM BKN050=



000
FTUS43 KDVN 020308 AAB
TAFDBQ
TAF AMD
KDBQ 020308Z 0203/0224 04008KT P6SM SCT040 BKN060
     FM020900 03006KT P6SM SCT050
     FM021700 02008KT P6SM BKN050=



000
FTUS43 KDVN 020206 AAB
TAFCID
TAF AMD
KCID 020206Z 0202/0224 01009KT P6SM OVC035
     FM020700 01006KT P6SM BKN015
     FM021400 03008KT P6SM BKN025
     FM021700 03006KT P6SM BKN050=



000
FTUS43 KDVN 020206 AAB
TAFCID
TAF AMD
KCID 020206Z 0202/0224 01009KT P6SM OVC035
     FM020700 01006KT P6SM BKN015
     FM021400 03008KT P6SM BKN025
     FM021700 03006KT P6SM BKN050=



000
FTUS43 KDVN 020139 AAB
TAFMLI
TAF AMD
KMLI 020139Z 0202/0224 04006KT 6SM BR OVC005
     FM020300 35009KT 4SM BR OVC005
     FM021100 03008KT P6SM BKN025
     FM021500 05008KT P6SM SCT030 OVC050=



000
FTUS43 KDVN 020104 AAA
TAFBRL
TAF AMD
KBRL 020104Z 0201/0224 35006KT P6SM OVC013
     FM020300 36007KT 4SM BR SCT005 OVC012
     FM020600 36005KT 3SM BR OVC005
      TEMPO 0208/0212 1SM BR
     FM021500 02007KT P6SM OVC020
     FM021700 03008KT P6SM BKN025=



000
FTUS43 KDVN 020101 AAA
TAFCID
TAF AMD
KCID 020101Z 0201/0224 01009KT 6SM -DZ BR OVC009
     FM020300 36008KT 4SM BR OVC009
     FM020500 01006KT P6SM OVC015
     FM021400 03008KT P6SM BKN025
     FM021700 03006KT P6SM BKN050=



000
FTUS43 KDVN 020101 AAA
TAFCID
TAF AMD
KCID 020101Z 0201/0224 01009KT 6SM -DZ BR OVC009
     FM020300 36008KT 4SM BR OVC009
     FM020500 01006KT P6SM OVC015
     FM021400 03008KT P6SM BKN025
     FM021700 03006KT P6SM BKN050=



000
FTUS43 KDVN 020059 AAA
TAFDBQ
TAF AMD
KDBQ 020059Z 0201/0224 35013KT 6SM BR SCT006 OVC040
     FM020300 36009KT 6SM BR SCT006 OVC025
     FM020900 03006KT P6SM BKN050
     FM021700 02008KT P6SM BKN050=



000
FTUS43 KDVN 020056 AAA
TAFMLI
TAF AMD
KMLI 020056Z 0201/0224 01006KT 3SM -RA BR SCT006 OVC060
     FM020200 36008KT 5SM BR SCT006 OVC035
     FM020400 36007KT 6SM BR OVC015
     FM021100 03008KT P6SM BKN025
     FM021500 05008KT P6SM SCT030 OVC050=



000
FTUS43 KDVN 020056 AAA
TAFMLI
TAF AMD
KMLI 020056Z 0201/0224 01006KT 3SM -RA BR SCT006 OVC060
     FM020200 36008KT 5SM BR SCT006 OVC035
     FM020400 36007KT 6SM BR OVC015
     FM021100 03008KT P6SM BKN025
     FM021500 05008KT P6SM SCT030 OVC050=



000
FTUS43 KDVN 012323
TAFCID
TAF
KCID 012323Z 0200/0224 36008KT 4SM -RA BR BKN007 OVC015
     FM020200 36008KT 5SM BR OVC009
     FM020500 01006KT P6SM OVC015
     FM021400 03008KT P6SM BKN025
     FM021700 03006KT P6SM BKN050=



000
FTUS43 KDVN 012323
TAFMLI
TAF
KMLI 012323Z 0200/0224 33007KT 2SM RA BR BKN009 OVC025
     FM020100 35008KT 4SM -RA BR OVC014
     FM020400 36007KT 6SM BR OVC015
     FM021100 03008KT P6SM BKN025
     FM021500 05008KT P6SM SCT030 OVC050=



000
FTUS43 KDVN 012323
TAFDBQ
TAF
KDBQ 012323Z 0200/0224 03006KT 5SM -RA BR SCT025 OVC035
      TEMPO 0200/0202 4SM RA BR BKN015 OVC025
     FM020200 02007KT 6SM BR OVC014
     FM020900 03006KT P6SM BKN050
     FM021700 02008KT P6SM BKN050=



000
FTUS43 KDVN 012323
TAFBRL
TAF
KBRL 012323Z 0200/0224 35008KT 3SM BR VCSH BKN005 OVC009
     FM020100 36006KT 2SM BR OVC004
      TEMPO 0208/0212 1SM BR
     FM021500 02007KT P6SM OVC020
     FM021700 03008KT P6SM BKN025=



000
FTUS43 KDVN 012208 AAC
TAFBRL
TAF AMD
KBRL 012208Z 0122/0218 34006KT 3SM BR BKN005 OVC014
      TEMPO 0122/0201 2SM SHRA BR OVC004
     FM020100 36006KT 3SM BR OVC004
     FM021200 01008KT P6SM OVC020=



000
FTUS43 KDVN 012122 AAB
TAFMLI
TAF AMD
KMLI 012122Z 0121/0218 06008KT P6SM OVC013
      TEMPO 0121/0123 4SM -RA BR OVC008
     FM012300 02008KT 4SM -RA BR OVC007
     FM020500 36007KT 6SM BR OVC015
     FM021200 03008KT P6SM OVC050=



000
FTUS43 KDVN 012113 AAA
TAFDBQ
TAF AMD
KDBQ 012113Z 0121/0218 04008KT 6SM -RA BR OVC015
      TEMPO 0121/0123 3SM RA BR OVC012
     FM012300 03007KT 3SM -RA BR OVC009
     FM020200 02007KT 6SM BR OVC014
     FM021000 02007KT P6SM SCT030=



000
FTUS43 KDVN 012113 AAA
TAFDBQ
TAF AMD
KDBQ 012113Z 0121/0218 04008KT 6SM -RA BR OVC015
      TEMPO 0121/0123 3SM RA BR OVC012
     FM012300 03007KT 3SM -RA BR OVC009
     FM020200 02007KT 6SM BR OVC014
     FM021000 02007KT P6SM SCT030=



000
FTUS43 KDVN 012110 AAA
TAFCID
TAF AMD
KCID 012110Z 0121/0218 05010KT 4SM -RA BR OVC008
      TEMPO 0121/0124 1SM RA BR OVC005
     FM020000 01012KT 3SM -RA BR OVC007
     FM020200 36008KT P6SM OVC017
     FM021000 36008KT P6SM SCT030=



000
FTUS43 KDVN 011946 AAB
TAFBRL
TAF AMD
KBRL 011946Z 0120/0218 05007KT 4SM BR VCSH OVC005
      TEMPO 0120/0123 1SM BR OVC004
     FM020100 36006KT 3SM BR OVC002
     FM021200 01008KT P6SM OVC020=



000
FTUS43 KDVN 011946 AAB
TAFBRL
TAF AMD
KBRL 011946Z 0120/0218 05007KT 4SM BR VCSH OVC005
      TEMPO 0120/0123 1SM BR OVC004
     FM020100 36006KT 3SM BR OVC002
     FM021200 01008KT P6SM OVC020=



000
FTUS43 KDVN 011913 AAA
TAFBRL
TAF AMD
KBRL 011913Z 0119/0218 05007KT 4SM BR VCSH OVC005
     FM020100 36006KT 3SM BR OVC002
     FM021200 01008KT P6SM OVC020=



000
FTUS43 KDVN 011730 AAA
TAFMLI
TAF AMD
KMLI 011730Z 0118/0218 05009KT P6SM OVC010
      TEMPO 0119/0123 4SM -RA BR OVC008
     FM012300 02008KT 6SM BR OVC005
     FM020600 36007KT 6SM BR OVC015
     FM021200 03008KT P6SM OVC050=



000
FTUS43 KDVN 011726
TAFMLI
TAF
KMLI 011726Z 0118/0218 05009KT 6SM BR OVC008
      TEMPO 0119/0123 4SM -RA BR
     FM012300 02008KT 6SM BR OVC005
     FM020600 36007KT 6SM BR OVC015
     FM021200 03008KT P6SM OVC050=



000
FTUS43 KDVN 011726
TAFBRL
TAF
KBRL 011726Z 0118/0218 05007KT P6SM OVC006
     FM012200 01009KT 4SM BR VCSH OVC003
     FM020100 36006KT 3SM BR OVC002
     FM021200 01008KT P6SM OVC020=



000
FTUS43 KDVN 011726
TAFCID
TAF
KCID 011726Z 0118/0218 07011KT P6SM OVC008
      TEMPO 0118/0122 2SM -SHRA BR
     FM012200 01010KT 6SM BR VCSH OVC010
     FM020200 36008KT P6SM OVC017
     FM021000 36008KT P6SM SCT030=



000
FTUS43 KDVN 011726
TAFDBQ
TAF
KDBQ 011726Z 0118/0218 05011KT P6SM VCSH OVC011
     FM020100 02007KT 6SM BR OVC014
     FM021000 02007KT P6SM SCT030=



000
FTUS43 KDVN 011726
TAFMLI
TAF
KMLI 011726Z 0118/0218 05009KT 6SM BR OVC008
      TEMPO 0119/0123 4SM -RA BR
     FM012300 02008KT 6SM BR OVC005
     FM020600 36007KT 6SM BR OVC015
     FM021200 03008KT P6SM OVC050=



000
FTUS43 KDVN 011726
TAFCID
TAF
KCID 011726Z 0118/0218 07011KT P6SM OVC008
      TEMPO 0118/0122 2SM -SHRA BR
     FM012200 01010KT 6SM BR VCSH OVC010
     FM020200 36008KT P6SM OVC017
     FM021000 36008KT P6SM SCT030=



000
FTUS43 KDVN 011726
TAFBRL
TAF
KBRL 011726Z 0118/0218 05007KT P6SM OVC006
     FM012200 01009KT 4SM BR VCSH OVC003
     FM020100 36006KT 3SM BR OVC002
     FM021200 01008KT P6SM OVC020=



000
FTUS43 KDVN 011726
TAFDBQ
TAF
KDBQ 011726Z 0118/0218 05011KT P6SM VCSH OVC011
     FM020100 02007KT 6SM BR OVC014
     FM021000 02007KT P6SM SCT030=



000
FTUS43 KDVN 011648 AAC
TAFBRL
TAF AMD
KBRL 011648Z 0117/0212 05007KT P6SM OVC006
     FM012200 01009KT 4SM BR VCSH OVC003
     FM020100 36006KT 3SM BR OVC002=



000
FTUS43 KDVN 011647 CCA
TAFCID
TAF COR
KCID 011647Z 0115/0212 07011KT P6SM OVC008
      TEMPO 0117/0121 4SM -SHRA BR
     FM012200 01010KT 6SM BR VCSH OVC007
     FM020200 36008KT P6SM OVC017
     FM021000 36008KT 6SM BR SCT030=



000
FTUS43 KDVN 011647 AAE
TAFDBQ
TAF AMD
KDBQ 011647Z 0117/0212 05011KT 6SM -SHRA BR OVC008
      TEMPO 0117/0120 BKN010
     FM020100 02007KT 6SM BR OVC014
     FM020800 02007KT 6SM BR SCT030=



000
FTUS43 KDVN 011509 AAD
TAFDBQ
TAF AMD
KDBQ 011509Z 0115/0212 05010KT P6SM OVC006
     FM011700 05011KT 6SM -SHRA BR OVC008
     FM020100 02007KT 6SM BR OVC014
     FM020800 02007KT 6SM BR SCT030=



000
FTUS43 KDVN 011442 AAC
TAFDBQ
TAF AMD
KDBQ 011442Z 0115/0212 05010KT P6SM OVC005
     FM011700 05011KT 6SM -SHRA BR OVC008
     FM020100 02007KT 6SM BR OVC014
     FM020800 02007KT 6SM BR SCT030=



000
FTUS43 KDVN 011442 AAC
TAFDBQ
TAF AMD
KDBQ 011442Z 0115/0212 05010KT P6SM OVC005
     FM011700 05011KT 6SM -SHRA BR OVC008
     FM020100 02007KT 6SM BR OVC014
     FM020800 02007KT 6SM BR SCT030=



000
FTUS43 KDVN 011441 AAB
TAFBRL
TAF AMD
KBRL 011441Z 0115/0212 05008KT 4SM BR OVC002
     FM011700 05007KT 3SM BR VCSH OVC004
     FM012200 01009KT 4SM BR VCSH OVC003
     FM020100 36006KT 3SM BR OVC002=



000
FTUS43 KDVN 011440 AAB
TAFMLI
TAF AMD
KMLI 011440Z 0115/0212 05010KT 3SM -DZ BR OVC006
     FM011700 05009KT 4SM -SHRA BR OVC008
     FM012300 02008KT 6SM BR OVC005
     FM020600 36007KT 6SM BR OVC015=



000
FTUS43 KDVN 011439 AAB
TAFDBQ
TAF AMD
KDBQ 011439Z 0115/0212 05010KT 3SM BR OVC004
     FM011700 05011KT 3SM -SHRA BR OVC005
     FM020100 02007KT 6SM BR OVC014
     FM020800 02007KT 6SM BR SCT030=



000
FTUS43 KDVN 011438 AAB
TAFCID
TAF AMD
KCID 011438Z 0115/0212 05011KT 6SM BR OVC006
      TEMPO 0117/0121 4SM -SHRA BR
     FM012200 01010KT 6SM BR VCSH OVC007
     FM020200 36008KT P6SM OVC017
     FM021000 36008KT 6SM BR SCT030=



000
FTUS43 KDVN 011301 AAA
TAFMLI
TAF AMD
KMLI 011301Z 0113/0212 05010KT 3SM -DZ BR OVC006
      TEMPO 0113/0115 2SM -DZ BR OVC005
     FM011500 05010KT 4SM BR OVC005
     FM011700 05009KT 4SM BR VCSH OVC005
     FM012300 02008KT 6SM BR OVC005
     FM020600 36007KT 6SM BR OVC015
     FM020900 36006KT 5SM BR BKN023=



000
FTUS43 KDVN 011227 AAA
TAFDBQ
TAF AMD
KDBQ 011227Z 0112/0212 05010KT 1 1/2SM -DZ BR OVC003
      TEMPO 0113/0117 3SM -DZ BR
     FM011700 05011KT 3SM -SHRA BR OVC005
     FM012300 03008KT 6SM BR VCSH OVC009
     FM020100 02007KT 6SM BR OVC014
     FM020600 02007KT P6SM BKN030
     FM020800 02007KT 6SM BR SCT030=



000
FTUS43 KDVN 011227 AAA
TAFDBQ
TAF AMD
KDBQ 011227Z 0112/0212 05010KT 1 1/2SM -DZ BR OVC003
      TEMPO 0113/0117 3SM -DZ BR
     FM011700 05011KT 3SM -SHRA BR OVC005
     FM012300 03008KT 6SM BR VCSH OVC009
     FM020100 02007KT 6SM BR OVC014
     FM020600 02007KT P6SM BKN030
     FM020800 02007KT 6SM BR SCT030=



000
FTUS43 KDVN 011226 AAA
TAFBRL
TAF AMD
KBRL 011226Z 0112/0212 05008KT 2SM -DZ BR OVC002
      TEMPO 0112/0115 1/2SM -DZ FG
     FM011500 06008KT 3SM BR OVC003
     FM011700 05007KT 3SM BR VCSH OVC004
     FM012200 01009KT 4SM BR VCSH OVC003
     FM020100 36006KT 3SM BR OVC002=



000
FTUS43 KDVN 011226 AAA
TAFBRL
TAF AMD
KBRL 011226Z 0112/0212 05008KT 2SM -DZ BR OVC002
      TEMPO 0112/0115 1/2SM -DZ FG
     FM011500 06008KT 3SM BR OVC003
     FM011700 05007KT 3SM BR VCSH OVC004
     FM012200 01009KT 4SM BR VCSH OVC003
     FM020100 36006KT 3SM BR OVC002=



000
FTUS43 KDVN 011207 AAA
TAFCID
TAF AMD
KCID 011207Z 0112/0212 05011KT 6SM BR OVC006
     FM011600 05011KT 6SM BR VCSH OVC005
      TEMPO 0117/0121 4SM -SHRA BR
     FM012200 01010KT 6SM BR VCSH OVC007
     FM020200 36008KT P6SM OVC017
     FM020700 36008KT P6SM BKN030
     FM021000 36008KT 6SM BR SCT030=



000
FTUS43 KDVN 011207 AAA
TAFCID
TAF AMD
KCID 011207Z 0112/0212 05011KT 6SM BR OVC006
     FM011600 05011KT 6SM BR VCSH OVC005
      TEMPO 0117/0121 4SM -SHRA BR
     FM012200 01010KT 6SM BR VCSH OVC007
     FM020200 36008KT P6SM OVC017
     FM020700 36008KT P6SM BKN030
     FM021000 36008KT 6SM BR SCT030=



000
FTUS43 KDVN 011134
TAFCID
TAF
KCID 011134Z 0112/0212 05011KT 5SM BR OVC006
     FM011600 05011KT 6SM BR VCSH OVC005
      TEMPO 0117/0121 4SM -SHRA BR
     FM012200 01010KT 6SM BR VCSH OVC007
     FM020200 36008KT P6SM OVC017
     FM020700 36008KT P6SM BKN030
     FM021000 36008KT 6SM BR SCT030=



000
FTUS43 KDVN 011134
TAFDBQ
TAF
KDBQ 011134Z 0112/0212 05010KT 2SM -DZ BR OVC003
      TEMPO 0113/0117 3SM -DZ BR
     FM011700 05011KT 3SM -SHRA BR OVC005
     FM012300 03008KT 6SM BR VCSH OVC009
     FM020100 02007KT 6SM BR OVC014
     FM020600 02007KT P6SM BKN030
     FM020800 02007KT 6SM BR SCT030=



000
FTUS43 KDVN 011134
TAFMLI
TAF
KMLI 011134Z 0112/0212 05010KT 1 1/2SM -DZ BR OVC005
      TEMPO 0112/0115 2SM -DZ BR OVC005
     FM011500 05010KT 4SM BR OVC005
     FM011700 05009KT 4SM BR VCSH OVC005
     FM012300 02008KT 6SM BR OVC005
     FM020600 36007KT 6SM BR OVC015
     FM020900 36006KT 5SM BR BKN023=



000
FTUS43 KDVN 011134
TAFBRL
TAF
KBRL 011134Z 0112/0212 05008KT 2SM -DZ BR OVC002
      TEMPO 0112/0115 1SM -DZ BR
     FM011500 06008KT 3SM BR OVC003
     FM011700 05007KT 3SM BR VCSH OVC004
     FM012200 01009KT 4SM BR VCSH OVC003
     FM020100 36006KT 3SM BR OVC002=



000
FTUS43 KDVN 011100 AAD
TAFMLI
TAF AMD
KMLI 011100Z 0111/0206 06011KT 2SM -DZ BR OVC004
      TEMPO 0111/0113 1 1/2SM -DZ BR
     FM011500 06012KT 2SM -SHRA BR OVC007
     FM012200 06010KT 3SM -RA BR OVC007
     FM020100 02008KT 6SM BR VCSH OVC009=



000
FTUS43 KDVN 011059 AAE
TAFCID
TAF AMD
KCID 011059Z 0111/0206 05011KT 3SM -DZ BR OVC006
      TEMPO 0111/0113 2SM -DZ BR
     FM011500 04012KT 2SM -SHRA BR OVC004
     FM011900 04010KT 3SM -RA BR OVC007
     FM012300 02008KT P6SM VCSH OVC009=



000
FTUS43 KDVN 011043 AAC
TAFMLI
TAF AMD
KMLI 011043Z 0111/0206 06011KT 2SM -DZ BR OVC004
     FM011200 04012KT 4SM BR OVC004
     FM011500 06012KT 2SM -SHRA BR OVC007
     FM012200 06010KT 3SM -RA BR OVC007
     FM020100 02008KT 6SM BR VCSH OVC009=



000
FTUS43 KDVN 011043 AAE
TAFDBQ
TAF AMD
KDBQ 011043Z 0111/0206 04012KT 2SM -DZ BR OVC004
     FM011400 04012KT 2SM BR OVC004
     FM011700 05010KT 3SM -SHRA BR OVC007
     FM020100 04008KT 6SM BR VCSH OVC009=



000
FTUS43 KDVN 011043 AAE
TAFDBQ
TAF AMD
KDBQ 011043Z 0111/0206 04012KT 2SM -DZ BR OVC004
     FM011400 04012KT 2SM BR OVC004
     FM011700 05010KT 3SM -SHRA BR OVC007
     FM020100 04008KT 6SM BR VCSH OVC009=



000
FTUS43 KDVN 011043 AAC
TAFMLI
TAF AMD
KMLI 011043Z 0111/0206 06011KT 2SM -DZ BR OVC004
     FM011200 04012KT 4SM BR OVC004
     FM011500 06012KT 2SM -SHRA BR OVC007
     FM012200 06010KT 3SM -RA BR OVC007
     FM020100 02008KT 6SM BR VCSH OVC009=



000
FTUS43 KDVN 011001 AAE
TAFBRL
TAF AMD
KBRL 011001Z 0110/0206 04008KT 3SM -DZ BR OVC002
      TEMPO 0110/0114 05008KT 1 1/2SM -DZ BR
     FM011500 04008KT 3SM -SHRA BR OVC004
     FM012100 03007KT 4SM BR VCSH OVC012=



000
FTUS43 KDVN 011001 AAE
TAFBRL
TAF AMD
KBRL 011001Z 0110/0206 04008KT 3SM -DZ BR OVC002
      TEMPO 0110/0114 05008KT 1 1/2SM -DZ BR
     FM011500 04008KT 3SM -SHRA BR OVC004
     FM012100 03007KT 4SM BR VCSH OVC012=



000
FTUS43 KDVN 010957 AAD
TAFCID
TAF AMD
KCID 010957Z 0110/0206 05011KT 3SM -DZ BR OVC004
      TEMPO 0110/0113 2SM -DZ BR
     FM011500 04012KT 2SM -SHRA BR OVC004
     FM011900 04010KT 3SM -RA BR OVC007
     FM012300 02008KT P6SM VCSH OVC009=



000
FTUS43 KDVN 010904 AAD
TAFBRL
TAF AMD
KBRL 010904Z 0109/0206 04008KT 3SM -DZ BR OVC002
      TEMPO 0109/0113 05008KT 2SM -DZ BR
     FM011500 04008KT 3SM -SHRA BR OVC004
     FM012100 03007KT 4SM BR VCSH OVC012=



000
FTUS43 KDVN 010903 AAD
TAFDBQ
TAF AMD
KDBQ 010903Z 0109/0206 04012KT 3SM -DZ BR OVC004
     FM011400 04012KT 2SM BR OVC004
     FM011700 05010KT 3SM -SHRA BR OVC007
     FM020100 04008KT 6SM BR VCSH OVC009=



000
FTUS43 KDVN 010851 AAC
TAFDBQ
TAF AMD
KDBQ 010851Z 0109/0206 04012KT 2SM -DZ BR OVC004
     FM011400 04012KT 2SM BR OVC004
     FM011700 05010KT 3SM -SHRA BR OVC007
     FM020100 04008KT 6SM BR VCSH OVC009=



000
FTUS43 KDVN 010802 AAC
TAFBRL
TAF AMD
KBRL 010802Z 0108/0206 04008KT 2SM -DZ BR OVC002
      TEMPO 0108/0112 05008KT 1SM BR
     FM011500 04008KT 3SM -SHRA BR OVC004
     FM012100 03007KT 4SM BR VCSH OVC012=



000
FTUS43 KDVN 010801 AAC
TAFCID
TAF AMD
KCID 010801Z 0108/0206 05013KT 4SM -DZ BR OVC006
     FM011100 05015KT 3SM BR OVC004
     FM011500 04012KT 2SM -SHRA BR OVC004
     FM011900 04010KT 3SM -RA BR OVC007
     FM012300 02008KT P6SM VCSH OVC009=



000
FTUS43 KDVN 010801 AAC
TAFCID
TAF AMD
KCID 010801Z 0108/0206 05013KT 4SM -DZ BR OVC006
     FM011100 05015KT 3SM BR OVC004
     FM011500 04012KT 2SM -SHRA BR OVC004
     FM011900 04010KT 3SM -RA BR OVC007
     FM012300 02008KT P6SM VCSH OVC009=



000
FTUS43 KDVN 010729 AAB
TAFMLI
TAF AMD
KMLI 010729Z 0107/0206 06011KT 3SM -DZ BR OVC004
     FM011200 04012KT 4SM BR OVC004
     FM011500 06012KT 2SM -SHRA BR OVC007
     FM012200 06010KT 3SM -RA BR OVC007
     FM020100 02008KT 6SM BR VCSH OVC009=



000
FTUS43 KDVN 010702 AAB
TAFBRL
TAF AMD
KBRL 010702Z 0107/0206 04008KT 2SM -DZ BR OVC002
     FM010900 04008KT 2SM -DZ BR OVC001
      TEMPO 0109/0113 05008KT 1SM BR
     FM011500 04008KT 3SM -SHRA BR OVC004
     FM012100 03007KT 4SM BR VCSH OVC012=



000
FTUS43 KDVN 010701 AAB
TAFDBQ
TAF AMD
KDBQ 010701Z 0107/0206 05013KT 3SM -DZ BR OVC005
     FM010900 04012KT 1 1/2SM -DZ BR OVC004
     FM011400 04012KT 2SM BR OVC004
     FM011700 05010KT 3SM -SHRA BR OVC007
     FM020100 04008KT 6SM BR VCSH OVC009=



000
FTUS43 KDVN 010701 AAA
TAFMLI
TAF AMD
KMLI 010701Z 0107/0206 06011KT 2SM -DZ BR OVC004
     FM011200 04012KT 4SM BR OVC004
     FM011500 06012KT 2SM -SHRA BR OVC007
     FM012200 06010KT 3SM -RA BR OVC007
     FM020100 02008KT 6SM BR VCSH OVC009=



000
FTUS43 KDVN 010700 AAB
TAFCID
TAF AMD
KCID 010700Z 0107/0206 06012KT 3SM -RADZ BR OVC006
     FM010800 05013KT 4SM -DZ BR OVC004
     FM011100 05015KT 3SM BR OVC004
     FM011500 04012KT 2SM -SHRA BR OVC004
     FM011900 04010KT 3SM -RA BR OVC007
     FM012300 02008KT P6SM VCSH OVC009=



000
FTUS43 KDVN 010700 AAB
TAFCID
TAF AMD
KCID 010700Z 0107/0206 06012KT 3SM -RADZ BR OVC006
     FM010800 05013KT 4SM -DZ BR OVC004
     FM011100 05015KT 3SM BR OVC004
     FM011500 04012KT 2SM -SHRA BR OVC004
     FM011900 04010KT 3SM -RA BR OVC007
     FM012300 02008KT P6SM VCSH OVC009=



000
FTUS43 KDVN 010607 AAA
TAFCID
TAF AMD
KCID 010607Z 0106/0206 06012KT 2SM -RADZ BR OVC006
     FM010800 05013KT 4SM -DZ BR OVC004
     FM011100 05015KT 3SM BR OVC004
     FM011500 04012KT 2SM -SHRA BR OVC004
     FM011900 04010KT 3SM -RA BR OVC007
     FM012300 02008KT P6SM VCSH OVC009=



000
FTUS43 KDVN 010607 AAA
TAFCID
TAF AMD
KCID 010607Z 0106/0206 06012KT 2SM -RADZ BR OVC006
     FM010800 05013KT 4SM -DZ BR OVC004
     FM011100 05015KT 3SM BR OVC004
     FM011500 04012KT 2SM -SHRA BR OVC004
     FM011900 04010KT 3SM -RA BR OVC007
     FM012300 02008KT P6SM VCSH OVC009=



000
FTUS43 KDVN 010606 AAA
TAFDBQ
TAF AMD
KDBQ 010606Z 0106/0206 05013G20KT 3SM -DZ BR OVC005
     FM010900 04012KT 1 1/2SM -DZ BR OVC004
     FM011400 04012KT 2SM BR OVC004
     FM011700 05010KT 3SM -SHRA BR OVC007
     FM020100 04008KT 6SM BR VCSH OVC009=



000
FTUS43 KDVN 010606 AAA
TAFDBQ
TAF AMD
KDBQ 010606Z 0106/0206 05013G20KT 3SM -DZ BR OVC005
     FM010900 04012KT 1 1/2SM -DZ BR OVC004
     FM011400 04012KT 2SM BR OVC004
     FM011700 05010KT 3SM -SHRA BR OVC007
     FM020100 04008KT 6SM BR VCSH OVC009=



000
FTUS43 KDVN 010605 AAA
TAFBRL
TAF AMD
KBRL 010605Z 0106/0206 04008KT 1SM -DZ BR OVC002
     FM010900 04008KT 2SM -DZ BR OVC001
      TEMPO 0109/0113 05008KT 1SM BR
     FM011500 04008KT 3SM -SHRA BR OVC004
     FM012100 03007KT 4SM BR VCSH OVC012=



000
FTUS43 KDVN 010605 AAA
TAFBRL
TAF AMD
KBRL 010605Z 0106/0206 04008KT 1SM -DZ BR OVC002
     FM010900 04008KT 2SM -DZ BR OVC001
      TEMPO 0109/0113 05008KT 1SM BR
     FM011500 04008KT 3SM -SHRA BR OVC004
     FM012100 03007KT 4SM BR VCSH OVC012=



000
FTUS43 KDVN 010520
TAFCID
TAF
KCID 010520Z 0106/0206 06012G22KT P6SM OVC008
     FM010800 05013KT 4SM BR OVC004
     FM011100 05015KT 3SM BR OVC004
     FM011500 04012KT 2SM -SHRA BR OVC004
     FM011900 04010KT 3SM -RA BR OVC007
     FM012300 02008KT P6SM VCSH OVC009=



000
FTUS43 KDVN 010520
TAFBRL
TAF
KBRL 010520Z 0106/0206 04008KT 5SM BR OVC003
     FM010900 04008KT 2SM -DZ BR OVC001
      TEMPO 0109/0113 05008KT 1SM BR
     FM011500 04008KT 3SM -SHRA BR OVC004
     FM012100 03007KT 4SM BR VCSH OVC012=



000
FTUS43 KDVN 010520
TAFMLI
TAF
KMLI 010520Z 0106/0206 07014KT P6SM OVC007
     FM010800 06011KT 6SM BR OVC004
     FM011200 04012KT 4SM BR OVC004
     FM011500 06012KT 2SM -SHRA BR OVC007
     FM012200 06010KT 3SM -RA BR OVC007
     FM020100 02008KT 6SM BR VCSH OVC009=



000
FTUS43 KDVN 010520
TAFDBQ
TAF
KDBQ 010520Z 0106/0206 05013KT 2SM -DZ BR OVC005
     FM010900 04012KT 1 1/2SM -DZ BR OVC004
     FM011400 04012KT 2SM BR OVC004
     FM011700 05010KT 3SM -SHRA BR OVC007
     FM020100 04008KT 6SM BR VCSH OVC009=



000
FTUS43 KDVN 010520
TAFCID
TAF
KCID 010520Z 0106/0206 06012G22KT P6SM OVC008
     FM010800 05013KT 4SM BR OVC004
     FM011100 05015KT 3SM BR OVC004
     FM011500 04012KT 2SM -SHRA BR OVC004
     FM011900 04010KT 3SM -RA BR OVC007
     FM012300 02008KT P6SM VCSH OVC009=



000
FTUS43 KDVN 010432 AAB
TAFBRL
TAF AMD
KBRL 010432Z 0105/0124 04008KT 5SM BR OVC003
     FM010700 04008KT 4SM -DZ BR OVC004
      TEMPO 0107/0110 1/2SM FG
     FM011000 04008KT 1SM BR OVC001
     FM011600 03007KT 4SM BR VCSH OVC012=



000
FTUS43 KDVN 010432 AAB
TAFBRL
TAF AMD
KBRL 010432Z 0105/0124 04008KT 5SM BR OVC003
     FM010700 04008KT 4SM -DZ BR OVC004
      TEMPO 0107/0110 1/2SM FG
     FM011000 04008KT 1SM BR OVC001
     FM011600 03007KT 4SM BR VCSH OVC012=



000
FTUS43 KDVN 010431 AAB
TAFMLI
TAF AMD
KMLI 010431Z 0105/0124 07014KT P6SM OVC007
     FM010800 06011KT 6SM BR OVC004
     FM011500 06012KT 2SM -SHRA BR OVC007
     FM011900 07010KT 3SM -SHRA BR OVC009=



000
FTUS43 KDVN 010426 AAA
TAFCID
TAF AMD
KCID 010426Z 0104/0124 06012G22KT P6SM OVC008
     FM010700 06013KT 4SM BR OVC004
     FM011100 05015KT 2SM BR OVC007
     FM011500 04012KT 1 1/2SM -RA BR OVC007
     FM011900 04010KT 3SM BR OVC009=



000
FTUS43 KDVN 010426 AAA
TAFCID
TAF AMD
KCID 010426Z 0104/0124 06012G22KT P6SM OVC008
     FM010700 06013KT 4SM BR OVC004
     FM011100 05015KT 2SM BR OVC007
     FM011500 04012KT 1 1/2SM -RA BR OVC007
     FM011900 04010KT 3SM BR OVC009=



000
FTUS43 KDVN 010352 AAA
TAFDBQ
TAF AMD
KDBQ 010352Z 0104/0124 05015KT 2SM -DZ BR OVC004
     FM010600 06013KT 1 1/2SM -DZ BR OVC002
     FM011300 04012KT 2SM -RA BR OVC007=



000
FTUS43 KDVN 010352 AAA
TAFDBQ
TAF AMD
KDBQ 010352Z 0104/0124 05015KT 2SM -DZ BR OVC004
     FM010600 06013KT 1 1/2SM -DZ BR OVC002
     FM011300 04012KT 2SM -RA BR OVC007=



000
FTUS43 KDVN 010102 AAA
TAFBRL
TAF AMD
KBRL 010102Z 0101/0124 04012KT 2SM -DZ BR OVC004
     FM010600 04008KT 1SM -DZ BR OVC004
      TEMPO 0106/0110 1/2SM FG
     FM011000 04008KT 1SM BR OVC001
     FM011600 03007KT 4SM BR VCSH OVC012=



000
FTUS43 KDVN 010100 AAA
TAFMLI
TAF AMD
KMLI 010100Z 0101/0124 07014KT 3SM -DZ BR OVC008
     FM010400 06013KT 3SM -DZ BR OVC004
     FM011500 06012KT 2SM -SHRA BR OVC007
     FM011900 07010KT 3SM -SHRA BR OVC009=



000
FTUS43 KDVN 302332
TAFDBQ
TAF
KDBQ 302332Z 0100/0124 05017G25KT 2SM -DZ BR OVC006
     FM010200 06015G24KT 3SM -DZ BR OVC004
     FM010600 06013KT 1 1/2SM -DZ BR OVC004
     FM011300 04012KT 2SM -RA BR OVC007=



000
FTUS43 KDVN 302332
TAFBRL
TAF
KBRL 302332Z 0100/0124 04013KT 6SM BR VCSH OVC003
     FM010200 06012KT 3SM BR OVC003
     FM010600 04006KT 2SM -DZ BR OVC004
      TEMPO 0106/0110 1SM BR
     FM011000 04008KT 1SM BR OVC001
     FM011600 03007KT 4SM BR VCSH OVC012=



000
FTUS43 KDVN 302332
TAFCID
TAF
KCID 302332Z 0100/0124 07018G29KT 3SM -DZ BR OVC011
     FM010200 06016G25KT 2SM -DZ BR OVC004
     FM011100 05015KT 2SM BR OVC007
     FM011500 04012KT 1 1/2SM -RA BR OVC007
     FM011900 04010KT 3SM BR OVC009=



000
FTUS43 KDVN 302332
TAFMLI
TAF
KMLI 302332Z 0100/0124 06014KT 2SM -DZ BR OVC007
     FM010200 06015G22KT 3SM -DZ BR OVC004
     FM011500 06012KT 2SM -SHRA BR OVC007
     FM011900 07010KT 3SM -SHRA BR OVC009=



000
FTUS43 KDVN 302244 AAC
TAFMLI
TAF AMD
KMLI 302244Z 3023/0118 08017G20KT 2SM -RA BR OVC009
     FM010200 06015KT 3SM -DZ BR OVC004
     FM011500 06009KT 2SM -DZ BR OVC007=



000
FTUS43 KDVN 302242 AAB
TAFCID
TAF AMD
KCID 302242Z 3023/0118 07016G26KT 5SM BR OVC009
      TEMPO 3023/0102 3SM -DZ BR
     FM010200 05014KT 3SM -DZ BR OVC004
     FM010600 06012KT 2SM -DZ BR OVC004
     FM011500 04012KT 1 1/2SM -RA BR OVC007=



000
FTUS43 KDVN 302052 AAA
TAFCID
TAF AMD
KCID 302052Z 3021/0118 07016G23KT 5SM -RA BR OVC012
      TEMPO 3021/3022 3SM -RA BR BKN009
     FM010200 05014KT 3SM -DZ BR VCSH OVC004
     FM010600 06012KT 2SM -DZ BR VCSH OVC004
     FM011500 04012KT 1 1/2SM -RA BR OVC007=



000
FTUS43 KDVN 302050 AAB
TAFMLI
TAF AMD
KMLI 302050Z 3021/0118 08018G25KT 3SM -RA BR OVC010
      TEMPO 3021/3022 2SM -RA BR OVC007
     FM302200 07015G20KT 4SM BR VCSH OVC007
     FM010300 06013KT 3SM -DZ BR VCSH OVC004
     FM011500 06009KT 2SM -DZ BR OVC007=



000
FTUS43 KDVN 302050 AAB
TAFMLI
TAF AMD
KMLI 302050Z 3021/0118 08018G25KT 3SM -RA BR OVC010
      TEMPO 3021/3022 2SM -RA BR OVC007
     FM302200 07015G20KT 4SM BR VCSH OVC007
     FM010300 06013KT 3SM -DZ BR VCSH OVC004
     FM011500 06009KT 2SM -DZ BR OVC007=



000
FTUS43 KDVN 302049 AAA
TAFBRL
TAF AMD
KBRL 302049Z 3021/0118 09010KT 4SM BR VCSH OVC006
      TEMPO 3021/3024 2SM -DZ BR OVC005
     FM010000 06012KT 4SM BR VCSH OVC006
     FM010600 04006KT 2SM -DZ BR OVC004=



000
FTUS43 KDVN 301907 AAA
TAFMLI
TAF AMD
KMLI 301907Z 3019/0118 08018G25KT 3SM -RA BR OVC008
      TEMPO 3019/3020 1 1/2SM RA BR OVC007
     FM302000 07015G20KT 4SM BR VCSH OVC007
     FM010300 06013KT 3SM -DZ BR VCSH OVC004
     FM011500 06009KT 2SM -DZ BR OVC007=



000
FTUS43 KDVN 301730
TAFDBQ
TAF
KDBQ 301730Z 3018/0118 07018G25KT 3SM -RA BR OVC008
      TEMPO 3018/3022 2SM -RA BR
     FM302300 06016G23KT 5SM BR VCSH OVC006
     FM010300 05014KT 3SM -DZ BR VCSH OVC004
     FM010600 06012KT 2SM -DZ BR VCSH OVC004
     FM011600 04012KT 1 1/2SM -RA BR OVC007=



000
FTUS43 KDVN 301730
TAFMLI
TAF
KMLI 301730Z 3018/0118 08019G27KT 3SM -RA BR OVC008
      TEMPO 3018/3020 2SM -RA BR OVC007
     FM302000 07015G20KT 4SM BR VCSH OVC007
     FM010300 06013KT 3SM -DZ BR VCSH OVC004
     FM011500 06009KT 2SM -DZ BR OVC007=



000
FTUS43 KDVN 301730
TAFBRL
TAF
KBRL 301730Z 3018/0118 09014KT 3SM -RA BR OVC008
      TEMPO 3018/3020 2SM -RA BR OVC005
     FM302000 09015G20KT 6SM BR VCSH OVC006
     FM010000 06012KT 4SM BR VCSH OVC006
     FM010600 04006KT 2SM -DZ BR OVC004=



000
FTUS43 KDVN 301730
TAFMLI
TAF
KMLI 301730Z 3018/0118 08019G27KT 3SM -RA BR OVC008
      TEMPO 3018/3020 2SM -RA BR OVC007
     FM302000 07015G20KT 4SM BR VCSH OVC007
     FM010300 06013KT 3SM -DZ BR VCSH OVC004
     FM011500 06009KT 2SM -DZ BR OVC007=



000
FTUS43 KDVN 301730
TAFBRL
TAF
KBRL 301730Z 3018/0118 09014KT 3SM -RA BR OVC008
      TEMPO 3018/3020 2SM -RA BR OVC005
     FM302000 09015G20KT 6SM BR VCSH OVC006
     FM010000 06012KT 4SM BR VCSH OVC006
     FM010600 04006KT 2SM -DZ BR OVC004=



000
FTUS43 KDVN 301730
TAFDBQ
TAF
KDBQ 301730Z 3018/0118 07018G25KT 3SM -RA BR OVC008
      TEMPO 3018/3022 2SM -RA BR
     FM302300 06016G23KT 5SM BR VCSH OVC006
     FM010300 05014KT 3SM -DZ BR VCSH OVC004
     FM010600 06012KT 2SM -DZ BR VCSH OVC004
     FM011600 04012KT 1 1/2SM -RA BR OVC007=



000
FTUS43 KDVN 301730
TAFCID
TAF
KCID 301730Z 3018/0118 07018G25KT 3SM -RA BR OVC008
      TEMPO 3018/3021 2SM -RA BR
     FM302100 06017G23KT 5SM BR VCSH OVC006
     FM010200 05014KT 3SM -DZ BR VCSH OVC004
     FM010600 06012KT 2SM -DZ BR VCSH OVC004
     FM011500 04012KT 1 1/2SM -RA BR OVC007=



000
FTUS43 KDVN 301730
TAFCID
TAF
KCID 301730Z 3018/0118 07018G25KT 3SM -RA BR OVC008
      TEMPO 3018/3021 2SM -RA BR
     FM302100 06017G23KT 5SM BR VCSH OVC006
     FM010200 05014KT 3SM -DZ BR VCSH OVC004
     FM010600 06012KT 2SM -DZ BR VCSH OVC004
     FM011500 04012KT 1 1/2SM -RA BR OVC007=



000
FTUS43 KDVN 301657 AAB
TAFDBQ
TAF AMD
KDBQ 301657Z 3017/0112 06015KT 3SM -RA BR OVC010
      TEMPO 3017/3020 2SM -RA BR OVC008
     FM302000 07015G21KT 2SM -RA BR OVC007
     FM302200 06017G22KT 5SM BR VCSH OVC006
     FM010400 05014KT 6SM BR VCSH OVC006=



000
FTUS43 KDVN 301657 AAB
TAFDBQ
TAF AMD
KDBQ 301657Z 3017/0112 06015KT 3SM -RA BR OVC010
      TEMPO 3017/3020 2SM -RA BR OVC008
     FM302000 07015G21KT 2SM -RA BR OVC007
     FM302200 06017G22KT 5SM BR VCSH OVC006
     FM010400 05014KT 6SM BR VCSH OVC006=



    US Dept of Commerce
    National Oceanic and Atmospheric Administration
    National Weather Service
    1325 East West Highway
    Silver Spring, MD 20910
    Page Author: NWS Internet Services Team
Disclaimer
Information Quality
Credits
Glossary
Privacy Policy
Freedom of Information Act (FOIA)
About Us
Career Opportunities